Eureka, CA

05:51 AM PST die 11o December, anno 2016 (GMT -0800)
Henderson Center | | Change Station

Elev 125 ft 40.78 °N, 124.17 °W | Updated 10 seconds ago

Aequaliter Nubila
Aequaliter Nubila
47.3 °F
Feels Like 47 °F
N
0.0
Ventus Variabilis Ventus from Magis Eurus quam Auster
Gusts 0.0 mph

Hodie
High -- | Low -- °F
--% Chance of Precip.
Yesterday
High -- | Low -- °F
Precip. -- in
Pressio 30.24 in
Visibilitas 10.0 milia passuum
Clouds Aequaliter Nubila 4200 ft
Frigus Venti 47 °F
Frigus in quo Ros apparet 46 °F
Umor 96%
Rainfall 0.00 in
Snow Depth Not available.
7:31 AM 4:49 PM
Waxing Gibbous, 91% visible
METAR KACV 111253Z AUTO 05003KT 10SM OVC042 06/06 A3022 RMK AO2 SLP239 T00610056
Pressio 30.24 in
Visibilitas 10.0 milia passuum
Clouds Aequaliter Nubila 4200 ft
Frigus Venti 47 °F
Frigus in quo Ros apparet 46 °F
Umor 96%
Rainfall 0.00 in
Snow Depth Not available.
7:31 AM 4:49 PM
Waxing Gibbous, 91% visible
METAR KACV 111253Z AUTO 05003KT 10SM OVC042 06/06 A3022 RMK AO2 SLP239 T00610056

10-Day Weather Forecast

Almanac

Astronomy

Dec. 11, 2016 Rise Set
Actual Time
Civil Twilight
Nautical Twilight
Astronomical Twilight
Moon
Length Of Visible Light
Length of Day
Tomorrow will be .
, % of the Moon is Illuminated

Today's Extremes

State Highs State Lows

Community

WunderPhotos

Upload Photos

1,956,708 photos uploaded!

WunderBlog® & News

Nearby

Air Quality

  Air Quality AQ Index Pollutant
Not available.

Snow Depth

Station Depth Elevation

Earthquake Activity

City Distance Mag. Time & Date
Minimum magnitude displayed is 2.5.

Coastal Water Temperatures

Locus Calor

Stations

Nearby Weather Stations

Station Location Temp Frigus Venti Frigus in quo Ros apparet Umor Ventus Precip. Elev Renovata Type
                   

Watches & Warnings

There are currently no watches in effect.